Southeast Iowa Regional Airport
KBRL : now visible

Airfield :











YOU CAN JOIN US ON...

 
LOGIN :

Register | Disclaimer

   EN    FR    IT 

 









Legend :    VFR   Marginal VFR   IFR   Intensive IFR   Very Intensive IFR
Visi :
Ceiling :
>= 8 km
>= 3000ft
5 to 8 km
1000 to 3000 ft
1500m to 5 km
500 to 1000 ft
800 to 1500m
200 to 500 ft
< 800m
< 200 ft
Symbols :   Thunderstorms  Fog  Heavy snow  Heavy precipitations  Wind > 20 kt






- Airport Elevation : 698 ft
- IATA code : BRL


KBRL - Southeast Iowa Regional

CURRENT METAR :
  • 190653Z AUTO 31003KT 7SM CLR M09/M11 A3015 RMK AO2 SLP220 I1000 T10941106

EXPIRED METARs :
  • 190553Z AUTO 00000KT 8SM CLR M09/M10 A3014 RMK AO2 SLP216 T10891100 11011 21089 400111089 52009
  • 190453Z AUTO 30004KT 10SM CLR M06/M08 A3013 RMK AO2 SLP212 T10561078

TAF KBRL
Valid from the 19 at 06:00 until the 20 at 06:00 UTC


190539Z 1906/2006 VRB04KT P6SM SKC
FM191500 22007KT P6SM OVC015
FM191800 26010KT P6SM OVC012
FM192100 26010KT P6SM BKN026
FM200200 30012KT P6SM BKN035
KZAU FIR / North America



MET'MAP, your aeronautical weather chart ! - Copyright ORBIFLY December 2007 - Disclaimer

ORBIFLY MET'MAP TEAM :

Programming & Development : Alexandra Zaïnal
Concept & original design : Baudouin d'Aumeries
Assistance for programming : Marc-Olivier Méhu
Technical & hardware support : Manuel Goepfert

Contact : metmap@orbifly.com




SOURCES & CREDITS :

   NOAA       Earth
Advisory